Terminal Aerodrome Forecast
Issued by NWS

Home | Current Version | Previous Version | Text Only | Print | Product List | Glossary On
Versions: 1 2 3 4 5 6 7 8 9 10 11 12 13 14 15 16 17 18 19 20 21 22 23 24 25 26 27 28 29 30 31 32 33 34 35 36
000
FTUS41 KBTV 150749 AAE
TAFPBG
TAF AMD
KPBG 150749Z 1508/1606 00000KT 1 1/2SM BR SCT050
      TEMPO 1508/1511 1/4SM FG VV002
     FM151100 VRB03KT P6SM SCT050
     FM151400 15005KT P6SM SCT050
     FM151800 13006KT P6SM VCSH BKN045 OVC070
     FM152300 33006KT P6SM SCT040 BKN060=

USA.gov is the U.S. government's official web portal to all federal, state and local government web resources and services.